CFF weather

Cafunfo Airport
Cafunfo, Lunda Norte Province, Angola

Public forecast

Using degrees Celsius for public forecast. Weather courtesy of forecast.io.

METAR (pilot weather report)

Report is more than 6 hours old.

Closest report is Malanje Airport, 108.9 nm (201.7 km) WSW. Retrieved 2019/04/12 15:00 UTC (9 days ago):

FNMA 121500Z VRB03KT 9999 SCT015 FEW020CB BKN100 28/23 Q1012

TAF (pilot weather forecast)

Forecast is more than 12 hours old.

Closest forecast is Malanje Airport, 108.9 nm (201.7 km) WSW. Retrieved 2019/04/20 00:00 UTC (1 day ago):

TAF FNMA 202300Z 2100/2112 21007KT 9999 FEW018 BKN100 PROB30 TEMPO 2106/2110 26008KT 8000 TSRA SCT014 FEW030CB